Terminal Aerodrome Forecast
Issued by NWS Cleveland, OH

Home | Current Version | Previous Version | Text Only | Print | Product List | Glossary Off
Versions: 1 2 3 4 5 6 7 8 9 10 11 12 13 14

932
FTUS41 KCLE 051136
TAFMFD
TAF
KMFD 051136Z 0512/0612 26006KT P6SM SKC
     FM052300 20006KT P6SM OVC120
     FM060100 21006KT P6SM OVC060
     FM060900 23006KT P6SM BKN120=

USA.gov is the U.S. government's official web portal to all federal, state and local government web resources and services.